Terminal Aerodrome Forecast
Issued by NWS

Home | Current Version | Previous Version | Text Only | Print | Product List | Glossary On
Versions: 1 2 3 4 5 6 7 8 9 10 11 12 13 14 15 16 17 18 19 20 21 22
000
FTUS45 KGJT 200224 AAA
TAFTEX
TAF AMD
KTEX 200224Z 2002/2024 22014G20KT 2SM -SN BKN008 OVC010
      TEMPO 2003/2006 1/4SM +SN OVC010
     FM200900 24010G21KT 3SM -SHSN BLSN SCT015 OVC025
     FM201300 24008KT P6SM VCSH OVC020
     FM201800 26009KT P6SM SCT020 BKN045
     FM202000 24010G20KT P6SM SCT020 BKN090=

USA.gov is the U.S. government's official web portal to all federal, state and local government web resources and services.